createdAt,value
2018-09-18T00:00:30.588Z,95.22
2018-09-18T00:01:30.681Z,95.12
2018-09-18T00:02:30.763Z,95.12
2018-09-18T00:03:30.739Z,95.12
2018-09-18T00:04:30.709Z,95.22
2018-09-18T00:05:30.924Z,95.12
2018-09-18T00:06:30.998Z,95.03
2018-09-18T00:07:30.954Z,95.03
2018-09-18T00:08:30.955Z,95.03
2018-09-18T00:09:31.297Z,95.03
2018-09-18T00:10:51.039Z,95.03
2018-09-18T00:12:12.074Z,95.12
2018-09-18T00:13:12.094Z,95.12
2018-09-18T00:14:12.225Z,95.03
2018-09-18T00:15:12.186Z,95.12
2018-09-18T00:16:12.450Z,95.12
2018-09-18T00:17:12.564Z,95.31
2018-09-18T00:18:12.667Z,95.22
2018-09-18T00:19:12.564Z,95.22
2018-09-18T00:20:12.622Z,95.03
2018-09-18T00:21:12.745Z,95.03
2018-09-18T00:22:12.748Z,94.84
2018-09-18T00:23:13.037Z,94.65
2018-09-18T00:24:12.010Z,94.65
2018-09-18T00:25:13.201Z,94.55
2018-09-18T00:26:12.130Z,94.55
2018-09-18T00:27:12.203Z,94.26
2018-09-18T00:28:12.239Z,94.36
2018-09-18T00:29:12.439Z,94.36
2018-09-18T00:30:33.961Z,94.36
2018-09-18T00:31:34.344Z,94.45
2018-09-18T00:32:34.170Z,94.36
2018-09-18T00:33:34.628Z,94.45
2018-09-18T00:34:56.910Z,94.55
2018-09-18T00:35:56.052Z,94.65
2018-09-18T00:36:55.341Z,94.65
2018-09-18T00:37:55.712Z,94.45
2018-09-18T00:38:55.989Z,94.45
2018-09-18T00:39:56.246Z,94.40
2018-09-18T00:40:56.209Z,94.31
2018-09-18T00:42:00.082Z,94.31
2018-09-18T00:42:56.727Z,94.21
2018-09-18T00:43:57.276Z,94.31
2018-09-18T00:44:56.229Z,94.21
2018-09-18T00:45:55.968Z,94.21
2018-09-18T00:46:56.750Z,94.31
2018-09-18T00:47:56.017Z,94.31
2018-09-18T00:48:56.359Z,94.31
2018-09-18T00:49:56.091Z,94.45
2018-09-18T00:50:56.506Z,94.45
2018-09-18T00:51:56.353Z,94.55
2018-09-18T00:52:56.043Z,94.65
2018-09-18T00:53:55.410Z,94.74
2018-09-18T00:54:55.971Z,95.03
2018-09-18T00:55:56.483Z,94.93
2018-09-18T00:56:56.132Z,94.93
2018-09-18T00:57:56.330Z,94.93
2018-09-18T00:58:56.080Z,95.03
2018-09-18T00:59:55.922Z,95.22
2018-09-18T01:00:56.041Z,95.41
2018-09-18T01:01:56.276Z,95.61
2018-09-18T01:02:55.953Z,95.79
2018-09-18T01:03:56.544Z,95.98
2018-09-18T01:04:56.483Z,96.18
2018-09-18T01:05:57.490Z,96.27
2018-09-18T01:06:56.004Z,96.37
2018-09-18T01:07:56.658Z,96.27
2018-09-18T01:08:58.008Z,96.18
2018-09-18T01:10:17.821Z,96.18
2018-09-18T01:11:18.090Z,96.37
2018-09-18T01:12:18.675Z,96.66
2018-09-18T01:13:18.987Z,96.75
2018-09-18T01:14:18.972Z,96.84
2018-09-18T01:15:18.447Z,96.84
2018-09-18T01:16:17.670Z,96.84
2018-09-18T01:17:17.591Z,96.94
2018-09-18T01:18:17.679Z,96.94
2018-09-18T01:19:17.560Z,96.94
2018-09-18T01:20:17.739Z,96.75
2018-09-18T01:21:17.772Z,96.75
2018-09-18T01:22:18.348Z,96.75
2018-09-18T01:23:18.213Z,96.84
2018-09-18T01:24:18.230Z,96.75
2018-09-18T01:25:18.299Z,96.84
2018-09-18T01:26:18.257Z,96.66
2018-09-18T01:27:18.170Z,96.37
2018-09-18T01:28:18.419Z,96.47
2018-09-18T01:29:17.596Z,96.18
2018-09-18T01:30:18.158Z,96.18
2018-09-18T01:31:18.246Z,95.98
2018-09-18T01:32:17.482Z,95.79
2018-09-18T01:33:59.266Z,95.89
2018-09-18T01:35:00.321Z,95.61
2018-09-18T01:36:00.245Z,95.41
2018-09-18T01:37:00.232Z,95.22
2018-09-18T01:38:00.339Z,95.41
2018-09-18T01:39:00.438Z,95.31
2018-09-18T01:39:59.451Z,95.12
2018-09-18T01:40:59.556Z,94.93
2018-09-18T01:41:59.817Z,94.65
2018-09-18T01:42:59.856Z,94.45
2018-09-18T01:43:59.788Z,94.26
2018-09-18T01:44:59.835Z,94.17
2018-09-18T01:46:20.864Z,94.26
2018-09-18T01:47:20.969Z,94.17
2018-09-18T01:48:20.974Z,94.36
2018-09-18T01:49:21.019Z,94.26
2018-09-18T01:50:21.918Z,94.17
2018-09-18T01:51:21.057Z,94.07
2018-09-18T01:52:21.018Z,93.88
2018-09-18T01:53:21.346Z,93.79
2018-09-18T01:54:21.664Z,93.79
2018-09-18T01:55:41.989Z,93.74
2018-09-18T01:56:42.255Z,93.45
2018-09-18T01:57:43.064Z,93.54
2018-09-18T01:58:42.037Z,93.26
2018-09-18T01:59:42.098Z,93.07
2018-09-18T02:00:42.238Z,92.97
2018-09-18T02:01:42.497Z,92.87
2018-09-18T02:02:42.659Z,92.87
2018-09-18T02:03:41.602Z,92.68
2018-09-18T02:04:42.586Z,92.68
2018-09-18T02:05:41.880Z,92.78
2018-09-18T02:06:41.918Z,92.40
2018-09-18T02:07:42.038Z,92.21
2018-09-18T02:08:42.328Z,92.01
2018-09-18T02:09:42.260Z,92.21
2018-09-18T02:10:42.311Z,91.82
2018-09-18T02:11:42.582Z,91.72
2018-09-18T02:13:03.494Z,91.63
2018-09-18T02:14:03.599Z,91.72
2018-09-18T02:15:03.880Z,91.63
2018-09-18T02:16:03.972Z,91.72
2018-09-18T02:17:04.336Z,91.72
2018-09-18T02:18:04.485Z,91.63
2018-09-18T02:19:03.779Z,91.72
2018-09-18T02:20:03.856Z,91.82
2018-09-18T02:21:03.787Z,91.63
2018-09-18T02:22:04.066Z,91.72
2018-09-18T02:23:04.108Z,91.72
2018-09-18T02:24:04.219Z,91.63
2018-09-18T02:25:04.335Z,91.53
2018-09-18T02:26:04.398Z,91.63
2018-09-18T02:27:24.767Z,91.63
2018-09-18T02:28:24.907Z,91.82
2018-09-18T02:29:25.139Z,91.92
2018-09-18T02:30:25.268Z,91.82
2018-09-18T02:31:25.553Z,92.01
2018-09-18T02:32:25.542Z,91.97
2018-09-18T02:33:25.636Z,91.97
2018-09-18T02:34:24.945Z,91.87
2018-09-18T02:35:25.221Z,91.97
2018-09-18T02:36:25.299Z,91.97
2018-09-18T02:37:25.620Z,92.06
2018-09-18T02:38:24.675Z,92.16
2018-09-18T02:39:24.926Z,91.97
2018-09-18T02:40:25.346Z,91.97
2018-09-18T02:41:25.507Z,91.77
2018-09-18T02:42:24.806Z,91.97
2018-09-18T02:43:25.006Z,91.87
2018-09-18T02:44:24.881Z,92.06
2018-09-18T02:45:24.900Z,92.06
2018-09-18T02:46:25.200Z,92.25
2018-09-18T02:47:48.588Z,92.35
2018-09-18T02:48:48.728Z,92.44
2018-09-18T02:50:30.745Z,92.35
2018-09-18T02:51:31.771Z,92.44
2018-09-18T02:52:31.074Z,92.54
2018-09-18T02:53:31.283Z,92.54
2018-09-18T02:54:31.634Z,92.35
2018-09-18T02:55:31.805Z,92.35
2018-09-18T02:56:31.048Z,92.35
2018-09-18T02:57:31.037Z,92.16
2018-09-18T02:58:31.120Z,92.44
2018-09-18T02:59:31.391Z,92.54
2018-09-18T03:00:52.377Z,92.73
2018-09-18T03:01:52.565Z,92.73
2018-09-18T03:02:52.713Z,92.73
2018-09-18T03:03:52.741Z,92.92
2018-09-18T03:04:53.072Z,92.83
2018-09-18T03:05:53.385Z,92.73
2018-09-18T03:06:52.376Z,92.73
2018-09-18T03:07:52.695Z,92.63
2018-09-18T03:08:52.964Z,92.54
2018-09-18T03:09:53.237Z,92.73
2018-09-18T03:10:52.381Z,92.92
2018-09-18T03:11:52.480Z,92.92
2018-09-18T03:12:52.587Z,92.83
2018-09-18T03:13:52.905Z,92.92
2018-09-18T03:14:52.802Z,92.83
2018-09-18T03:16:14.032Z,92.83
2018-09-18T03:17:13.891Z,92.83
2018-09-18T03:18:13.903Z,92.73
2018-09-18T03:19:35.027Z,92.73
2018-09-18T03:20:56.068Z,92.83
2018-09-18T03:21:56.386Z,93.12
2018-09-18T03:23:19.393Z,93.21
2018-09-18T03:24:19.495Z,92.83
2018-09-18T03:25:19.881Z,92.73
2018-09-18T03:26:41.015Z,92.73
2018-09-18T03:27:41.284Z,92.83
2018-09-18T03:29:02.577Z,92.63
2018-09-18T03:30:02.717Z,92.54
2018-09-18T03:31:02.883Z,92.54
2018-09-18T03:32:03.019Z,92.54
2018-09-18T03:33:03.301Z,92.44
2018-09-18T03:34:03.444Z,92.35
2018-09-18T03:35:02.713Z,92.35
2018-09-18T03:36:02.965Z,92.25
2018-09-18T03:37:03.315Z,92.16
2018-09-18T03:38:02.545Z,92.25
2018-09-18T03:39:02.500Z,92.35
2018-09-18T03:40:13.306Z,91.97
2018-09-18T03:41:02.487Z,92.25
2018-09-18T03:42:23.604Z,91.97
2018-09-18T03:43:23.776Z,91.97
2018-09-18T03:44:23.797Z,91.97
2018-09-18T03:45:23.830Z,92.06
2018-09-18T03:46:23.976Z,91.97
2018-09-18T03:47:24.268Z,91.97
2018-09-18T03:48:24.353Z,91.97
2018-09-18T03:49:23.405Z,92.16
2018-09-18T03:50:23.774Z,91.97
2018-09-18T03:51:23.939Z,92.16
2018-09-18T03:52:24.313Z,91.97
2018-09-18T03:53:24.365Z,92.06
2018-09-18T03:54:23.649Z,91.97
2018-09-18T03:55:23.817Z,91.68
2018-09-18T03:56:23.988Z,91.30
2018-09-18T03:57:24.162Z,91.20
2018-09-18T03:58:45.031Z,91.01
2018-09-18T03:59:45.233Z,91.01
2018-09-18T04:00:45.501Z,91.01
2018-09-18T04:01:45.754Z,91.11
2018-09-18T04:02:46.024Z,91.01
2018-09-18T04:03:45.828Z,91.01
2018-09-18T04:04:45.769Z,90.82
2018-09-18T04:05:45.846Z,90.72
2018-09-18T04:06:45.905Z,90.72
2018-09-18T04:07:45.929Z,90.72
2018-09-18T04:08:46.031Z,90.82
2018-09-18T04:09:45.172Z,90.62
2018-09-18T04:10:45.179Z,90.53
2018-09-18T04:11:45.327Z,90.62
2018-09-18T04:12:45.433Z,90.24
2018-09-18T04:13:45.552Z,90.24
2018-09-18T04:14:45.471Z,90.15
2018-09-18T04:15:45.403Z,90.05
2018-09-18T04:16:45.619Z,90.05
2018-09-18T04:17:45.930Z,89.95
2018-09-18T04:18:45.977Z,89.67
2018-09-18T04:19:45.880Z,89.81
2018-09-18T04:20:45.044Z,89.33
2018-09-18T04:21:45.157Z,89.04
2018-09-18T04:22:45.390Z,88.95
2018-09-18T04:23:45.817Z,88.95
2018-09-18T04:24:46.038Z,88.85
2018-09-18T04:25:45.439Z,88.56
2018-09-18T04:26:45.852Z,88.85
2018-09-18T04:27:45.101Z,88.85
2018-09-18T04:28:45.283Z,88.56
2018-09-18T04:29:45.650Z,88.37
2018-09-18T04:30:46.024Z,88.18
2018-09-18T04:32:06.028Z,87.80
2018-09-18T04:33:07.200Z,87.80
2018-09-18T04:34:06.464Z,87.61
2018-09-18T04:35:06.726Z,87.61
2018-09-18T04:36:06.857Z,87.41
2018-09-18T04:37:06.232Z,87.23
2018-09-18T04:38:06.546Z,87.23
2018-09-18T04:39:06.635Z,87.23
2018-09-18T04:40:07.488Z,87.32
2018-09-18T04:41:06.387Z,87.32
2018-09-18T04:42:06.581Z,87.03
2018-09-18T04:43:06.675Z,86.41
2018-09-18T04:44:07.174Z,86.02
2018-09-18T04:45:06.242Z,85.83
2018-09-18T04:46:06.696Z,85.83
2018-09-18T04:47:07.402Z,85.64
2018-09-18T04:48:07.016Z,85.45
2018-09-18T04:49:06.003Z,85.45
2018-09-18T04:50:06.554Z,85.54
2018-09-18T04:51:06.712Z,85.64
2018-09-18T04:52:07.146Z,85.83
2018-09-18T04:53:06.391Z,85.64
2018-09-18T04:54:06.594Z,85.54
2018-09-18T04:55:06.701Z,85.64
2018-09-18T04:56:07.009Z,85.45
2018-09-18T04:57:06.252Z,85.35
2018-09-18T04:58:06.399Z,85.16
2018-09-18T04:59:06.528Z,85.06
2018-09-18T05:00:07.091Z,84.97
2018-09-18T05:01:06.593Z,84.88
2018-09-18T05:02:06.574Z,84.88
2018-09-18T05:03:27.855Z,84.88
2018-09-18T05:04:49.644Z,84.49
2018-09-18T05:05:49.919Z,84.39
2018-09-18T05:07:31.125Z,84.30
2018-09-18T05:08:31.539Z,84.30
2018-09-18T05:09:32.137Z,84.30
2018-09-18T05:10:32.409Z,84.39
2018-09-18T05:11:31.607Z,84.39
2018-09-18T05:12:31.747Z,84.49
2018-09-18T05:13:32.039Z,84.58
2018-09-18T05:14:32.189Z,84.49
2018-09-18T05:15:31.201Z,84.68
2018-09-18T05:16:31.359Z,84.88
2018-09-18T05:17:31.358Z,84.68
2018-09-18T05:19:13.257Z,84.39
2018-09-18T05:20:13.543Z,84.58
2018-09-18T05:21:13.849Z,84.58
2018-09-18T05:22:14.186Z,84.88
2018-09-18T05:23:13.620Z,84.58
2018-09-18T05:24:13.912Z,84.58
2018-09-18T05:25:13.943Z,84.68
2018-09-18T05:26:14.327Z,84.68
2018-09-18T05:27:14.676Z,84.78
2018-09-18T05:28:14.059Z,84.97
2018-09-18T05:29:14.221Z,84.97
2018-09-18T05:30:14.608Z,85.16
2018-09-18T05:31:13.975Z,85.06
2018-09-18T05:32:14.683Z,85.25
2018-09-18T05:33:14.004Z,85.06
2018-09-18T05:34:14.024Z,85.25
2018-09-18T05:35:14.855Z,85.25
2018-09-18T05:36:14.072Z,85.35
2018-09-18T05:37:14.360Z,85.35
2018-09-18T05:38:13.743Z,85.35
2018-09-18T05:39:14.919Z,85.54
2018-09-18T05:40:35.037Z,85.35
2018-09-18T05:41:56.531Z,85.45
2018-09-18T05:42:56.567Z,85.16
2018-09-18T05:43:56.657Z,85.25
2018-09-18T05:44:57.011Z,85.45
2018-09-18T05:45:57.041Z,85.54
2018-09-18T05:46:56.324Z,85.54
2018-09-18T05:47:56.722Z,85.45
2018-09-18T05:48:57.051Z,85.54
2018-09-18T05:50:17.732Z,85.54
2018-09-18T05:51:17.943Z,85.64
2018-09-18T05:52:18.244Z,85.64
2018-09-18T05:53:17.599Z,85.93
2018-09-18T05:54:17.688Z,86.12
2018-09-18T05:55:17.864Z,86.21
2018-09-18T05:56:38.967Z,86.31
2018-09-18T05:57:39.288Z,86.31
2018-09-18T05:58:39.551Z,86.50
2018-09-18T05:59:40.212Z,86.60
2018-09-18T06:00:39.496Z,86.60
2018-09-18T06:01:39.727Z,86.50
2018-09-18T06:02:39.939Z,86.21
2018-09-18T06:03:39.457Z,86.41
2018-09-18T06:04:39.996Z,86.50
2018-09-18T06:06:21.289Z,86.60
2018-09-18T06:07:21.645Z,86.41
2018-09-18T06:08:21.969Z,86.31
2018-09-18T06:09:21.125Z,86.07
2018-09-18T06:10:22.274Z,86.16
2018-09-18T06:11:21.681Z,86.07
2018-09-18T06:12:21.994Z,85.78
2018-09-18T06:13:21.266Z,85.88
2018-09-18T06:14:21.502Z,85.58
2018-09-18T06:15:21.650Z,85.05
2018-09-18T06:16:22.092Z,84.67
2018-09-18T06:17:21.314Z,84.09
2018-09-18T06:18:21.725Z,83.65
2018-09-18T06:19:22.231Z,83.27
2018-09-18T06:20:21.245Z,82.89
2018-09-18T06:21:21.386Z,81.68
2018-09-18T06:22:21.526Z,80.66
2018-09-18T06:23:21.538Z,80.09
2018-09-18T06:24:21.894Z,79.36
2018-09-18T06:25:21.272Z,78.50
2018-09-18T06:26:21.515Z,77.38
2018-09-18T06:27:22.849Z,76.46
2018-09-18T06:28:21.457Z,75.59
2018-09-18T06:29:21.765Z,75.15
2018-09-18T06:30:22.106Z,74.29
2018-09-18T06:31:21.303Z,73.94
2018-09-18T06:32:42.524Z,72.97
2018-09-18T06:33:42.993Z,72.49
2018-09-18T06:34:43.431Z,72.14
2018-09-18T06:35:42.963Z,71.47
2018-09-18T06:36:43.065Z,70.64
2018-09-18T06:37:43.521Z,70.54
2018-09-18T06:38:42.971Z,70.00
2018-09-18T06:39:43.523Z,68.84
2018-09-18T06:40:42.978Z,68.59
2018-09-18T06:41:43.448Z,68.29
2018-09-18T06:43:04.046Z,66.69
2018-09-18T06:44:05.518Z,66.20
2018-09-18T06:45:05.211Z,66.24
2018-09-18T06:47:08.061Z,64.53
2018-09-18T06:48:08.269Z,64.56
2018-09-18T06:49:08.852Z,63.31
2018-09-18T06:50:08.170Z,62.95
2018-09-18T06:51:09.242Z,62.85
2018-09-18T06:52:08.596Z,62.30
2018-09-18T06:53:09.476Z,61.72
2018-09-18T06:54:08.622Z,60.88
2018-09-18T06:55:08.813Z,60.88
2018-09-18T06:56:08.237Z,60.43
2018-09-18T06:57:08.822Z,60.14
2018-09-18T06:58:08.354Z,59.75
2018-09-18T06:59:08.407Z,59.30
2018-09-18T07:00:08.623Z,59.03
2018-09-18T07:01:08.996Z,58.45
2018-09-18T07:02:08.233Z,58.39
2018-09-18T07:03:08.891Z,57.80
2018-09-18T07:04:08.186Z,57.25
2018-09-18T07:05:08.566Z,56.96
2018-09-18T07:06:08.619Z,56.30
2018-09-18T07:07:09.064Z,55.92
2018-09-18T07:08:08.577Z,55.55
2018-09-18T07:09:08.649Z,55.17
2018-09-18T07:10:08.112Z,54.52
2018-09-18T07:11:08.353Z,54.32
2018-09-18T07:12:08.580Z,53.93
2018-09-18T07:13:08.813Z,53.45
2018-09-18T07:14:08.262Z,53.35
2018-09-18T07:15:08.788Z,53.16
2018-09-18T07:16:08.753Z,52.96
2018-09-18T07:17:08.028Z,53.74
2018-09-18T07:18:08.550Z,52.76
2018-09-18T07:19:08.889Z,52.47
2018-09-18T07:20:08.094Z,52.89
2018-09-18T07:21:08.476Z,51.62
2018-09-18T07:22:08.813Z,51.92
2018-09-18T07:23:07.795Z,51.84
2018-09-18T07:24:07.964Z,51.65
2018-09-18T07:25:30.538Z,51.65
2018-09-18T07:26:30.777Z,51.65
2018-09-18T07:27:31.011Z,51.29
2018-09-18T07:28:31.334Z,51.39
2018-09-18T07:29:30.821Z,50.70
2018-09-18T07:30:31.160Z,50.90
2018-09-18T07:31:31.519Z,50.41
2018-09-18T07:32:30.938Z,50.73
2018-09-18T07:33:31.070Z,50.41
2018-09-18T07:34:31.441Z,50.12
2018-09-18T07:35:30.738Z,50.31
2018-09-18T07:36:30.904Z,50.82
2018-09-18T07:37:31.328Z,49.95
2018-09-18T07:38:31.517Z,49.76
2018-09-18T07:39:30.543Z,49.56
2018-09-18T07:40:30.775Z,49.78
2018-09-18T07:41:31.075Z,50.09
2018-09-18T07:42:31.224Z,48.80
2018-09-18T07:43:51.666Z,49.00
2018-09-18T07:44:52.116Z,49.29
2018-09-18T07:45:52.411Z,49.41
2018-09-18T07:46:51.807Z,48.66
2018-09-18T07:47:52.424Z,47.78
2018-09-18T07:48:51.670Z,47.66
2018-09-18T07:50:13.053Z,47.78
2018-09-18T07:51:13.301Z,48.27
2018-09-18T07:52:13.717Z,48.19
2018-09-18T07:53:13.958Z,47.44
2018-09-18T07:54:13.194Z,47.14
2018-09-18T07:55:13.603Z,47.05
2018-09-18T07:56:14.024Z,46.68
2018-09-18T07:57:34.369Z,46.48
2018-09-18T07:58:34.812Z,46.07
2018-09-18T07:59:35.257Z,46.75
2018-09-18T08:00:34.607Z,46.95
2018-09-18T08:01:35.092Z,46.56
2018-09-18T08:02:35.519Z,46.95
2018-09-18T08:03:34.956Z,46.58
2018-09-18T08:04:35.277Z,46.80
2018-09-18T08:05:34.819Z,46.62
2018-09-18T08:06:35.131Z,45.86
2018-09-18T08:07:34.687Z,45.28
2018-09-18T08:08:35.474Z,44.89
2018-09-18T08:09:34.872Z,45.18
2018-09-18T08:10:35.193Z,44.57
2018-09-18T08:11:35.519Z,45.45
2018-09-18T08:12:56.346Z,45.37
2018-09-18T08:13:57.580Z,44.69
2018-09-18T08:14:56.809Z,44.57
2018-09-18T08:15:56.950Z,45.36
2018-09-18T08:17:18.731Z,44.59
2018-09-18T08:18:19.666Z,44.42
2018-09-18T08:19:18.855Z,44.13
2018-09-18T08:20:40.574Z,44.23
2018-09-18T08:21:41.908Z,43.73
2018-09-18T08:22:41.438Z,43.66
2018-09-18T08:24:02.043Z,43.17
2018-09-18T08:25:02.428Z,43.68
2018-09-18T08:26:02.875Z,42.88
2018-09-18T08:27:02.246Z,43.38
2018-09-18T08:28:02.758Z,42.70
2018-09-18T08:29:02.288Z,42.78
2018-09-18T08:30:02.525Z,43.27
2018-09-18T08:31:03.083Z,42.88
2018-09-18T08:32:02.536Z,42.88
2018-09-18T08:33:03.119Z,43.19
2018-09-18T08:34:02.690Z,42.70
2018-09-18T08:35:02.231Z,42.60
2018-09-18T08:36:23.938Z,42.72
2018-09-18T08:37:24.275Z,42.15
2018-09-18T08:38:24.874Z,41.47
2018-09-18T08:39:24.473Z,41.86
2018-09-18T08:40:24.827Z,41.35
2018-09-18T08:41:24.345Z,41.76
2018-09-18T08:42:24.609Z,41.88
2018-09-18T08:43:24.085Z,41.49
2018-09-18T08:44:24.614Z,41.39
2018-09-18T08:45:24.992Z,41.00
2018-09-18T08:46:24.534Z,41.17
2018-09-18T08:47:24.135Z,41.17
2018-09-18T08:48:45.655Z,40.80
2018-09-18T08:49:46.268Z,41.02
2018-09-18T08:50:45.593Z,40.63
2018-09-18T08:51:46.128Z,40.31
2018-09-18T08:52:47.050Z,40.90
2018-09-18T08:53:46.366Z,41.21
2018-09-18T08:54:45.882Z,40.06
2018-09-18T08:55:46.171Z,40.37
2018-09-18T08:56:46.733Z,39.68
2018-09-18T08:57:47.438Z,39.86
2018-09-18T08:58:45.692Z,39.66
2018-09-18T09:00:08.285Z,39.98
2018-09-18T09:01:09.146Z,39.68
2018-09-18T09:02:09.070Z,39.17
2018-09-18T09:03:29.292Z,39.72
2018-09-18T09:04:30.894Z,40.11
2018-09-18T09:05:29.313Z,40.43
2018-09-18T09:06:31.253Z,40.01
2018-09-18T09:07:30.039Z,40.80
2018-09-18T09:08:29.427Z,40.51
2018-09-18T09:09:52.741Z,40.29
2018-09-18T09:10:53.697Z,40.61
2018-09-18T09:11:51.991Z,40.11
2018-09-18T09:12:52.713Z,40.11
2018-09-18T09:13:52.299Z,40.09
2018-09-18T09:14:52.778Z,40.51
2018-09-18T09:15:52.439Z,40.25
2018-09-18T09:16:53.797Z,39.40
2018-09-18T09:17:52.416Z,39.23
2018-09-18T09:18:52.797Z,38.46
2018-09-18T09:19:52.962Z,37.95
2018-09-18T09:20:52.778Z,38.76
2018-09-18T09:21:53.203Z,37.87
2018-09-18T09:22:52.530Z,37.87
2018-09-18T09:23:51.789Z,37.57
2018-09-18T09:24:52.986Z,37.89
2018-09-18T09:26:16.297Z,37.02
2018-09-18T09:27:16.352Z,37.14
2018-09-18T09:28:15.987Z,36.57
2018-09-18T09:29:15.501Z,36.33
2018-09-18T09:30:15.837Z,36.53
2018-09-18T09:31:15.702Z,36.92
2018-09-18T09:32:16.769Z,37.53
2018-09-18T09:33:16.901Z,36.38
2018-09-18T09:34:15.980Z,36.00
2018-09-18T09:35:15.218Z,35.52
2018-09-18T09:36:15.603Z,35.83
2018-09-18T09:37:15.798Z,34.63
2018-09-18T09:38:15.422Z,35.38
2018-09-18T09:39:15.759Z,35.68
2018-09-18T09:40:15.067Z,36.05
2018-09-18T09:41:15.477Z,35.86
2018-09-18T09:42:15.864Z,36.15
2018-09-18T09:43:15.213Z,36.27
2018-09-18T09:44:15.726Z,36.17
2018-09-18T09:45:57.163Z,35.40
2018-09-18T09:47:18.624Z,35.52
2018-09-18T09:48:18.850Z,35.14
2018-09-18T09:49:19.254Z,34.84
2018-09-18T09:50:19.624Z,34.66
2018-09-18T09:51:19.235Z,34.76
2018-09-18T09:52:18.854Z,34.27
2018-09-18T09:53:19.365Z,34.46
2018-09-18T09:54:18.964Z,34.67
2018-09-18T09:55:19.442Z,34.08
2018-09-18T09:56:18.747Z,34.10
2018-09-18T09:57:19.233Z,33.79
2018-09-18T09:58:19.690Z,34.06
2018-09-18T09:59:19.018Z,34.27
2018-09-18T10:00:41.157Z,34.17
2018-09-18T10:01:41.609Z,34.48
2018-09-18T10:02:41.355Z,33.90
2018-09-18T10:03:41.142Z,34.00
2018-09-18T10:04:40.436Z,33.69
2018-09-18T10:05:40.707Z,34.55
2018-09-18T10:06:41.443Z,34.76
2018-09-18T10:07:41.048Z,34.59
2018-09-18T10:08:40.627Z,34.12
2018-09-18T10:09:40.887Z,33.85
2018-09-18T10:10:42.524Z,32.98
2018-09-18T10:11:41.627Z,33.09
2018-09-18T10:12:41.063Z,32.71
2018-09-18T10:13:41.371Z,32.02
2018-09-18T10:14:41.406Z,32.51
2018-09-18T10:15:40.816Z,32.12
2018-09-18T10:16:41.302Z,32.03
2018-09-18T10:17:40.679Z,31.77
2018-09-18T10:18:41.264Z,31.57
2018-09-18T10:19:40.783Z,31.37
2018-09-18T10:20:41.331Z,31.47
2018-09-18T10:21:40.627Z,31.18
2018-09-18T10:22:41.177Z,31.15
2018-09-18T10:23:40.445Z,31.77
2018-09-18T10:24:40.744Z,30.65
2018-09-18T10:25:41.176Z,31.21
2018-09-18T10:26:40.501Z,31.79
2018-09-18T10:27:41.109Z,32.07
2018-09-18T10:28:40.390Z,32.58
2018-09-18T10:29:40.743Z,32.20
2018-09-18T10:30:41.248Z,31.60
2018-09-18T10:31:41.006Z,31.90
2018-09-18T10:32:40.817Z,31.49
2018-09-18T10:33:41.509Z,31.97
2018-09-18T10:34:40.992Z,33.09
2018-09-18T10:36:04.044Z,31.49
2018-09-18T10:37:01.408Z,31.68
2018-09-18T10:38:01.777Z,31.57
2018-09-18T10:39:02.252Z,31.77
2018-09-18T10:40:01.633Z,31.79
2018-09-18T10:41:23.507Z,31.87
2018-09-18T10:42:23.901Z,31.88
2018-09-18T10:43:23.341Z,31.62
2018-09-18T10:44:23.553Z,31.32
2018-09-18T10:45:24.019Z,31.23
2018-09-18T10:46:23.419Z,30.80
2018-09-18T10:47:23.954Z,31.56
2018-09-18T10:48:23.620Z,31.85
2018-09-18T10:49:23.879Z,32.15
2018-09-18T10:50:24.258Z,32.15
2018-09-18T10:51:23.696Z,31.85
2018-09-18T10:52:24.018Z,31.96
2018-09-18T10:53:23.281Z,32.22
2018-09-18T10:54:23.659Z,32.59
2018-09-18T10:55:24.237Z,33.08
2018-09-18T10:56:23.930Z,33.69
2018-09-18T10:57:44.409Z,32.55
2018-09-18T10:58:44.792Z,32.06
2018-09-18T10:59:45.847Z,32.22
2018-09-18T11:00:45.244Z,32.75
2018-09-18T11:01:44.835Z,32.34
2018-09-18T11:02:45.388Z,32.37
2018-09-18T11:03:44.863Z,31.94
2018-09-18T11:04:44.450Z,32.43
2018-09-18T11:05:44.860Z,32.71
2018-09-18T11:06:45.239Z,33.28
2018-09-18T11:07:46.377Z,33.59
2018-09-18T11:08:46.317Z,33.23
2018-09-18T11:09:44.806Z,32.43
2018-09-18T11:10:45.291Z,32.92
2018-09-18T11:11:44.680Z,32.83
2018-09-18T11:12:45.047Z,32.93
2018-09-18T11:13:44.238Z,32.45
2018-09-18T11:14:44.885Z,32.81
2018-09-18T11:16:06.513Z,34.36
2018-09-18T11:17:07.160Z,34.88
2018-09-18T11:18:06.980Z,34.71
2018-09-18T11:19:27.663Z,33.62
2018-09-18T11:20:27.942Z,33.64
2018-09-18T11:21:28.665Z,33.45
2018-09-18T11:22:28.163Z,34.15
2018-09-18T11:23:27.994Z,34.61
2018-09-18T11:24:28.645Z,34.91
2018-09-18T11:25:28.164Z,35.30
2018-09-18T11:26:28.614Z,35.42
2018-09-18T11:27:28.170Z,35.55
2018-09-18T11:28:27.815Z,34.88
2018-09-18T11:29:28.422Z,34.88
2018-09-18T11:30:27.898Z,34.97
2018-09-18T11:31:28.561Z,35.17
2018-09-18T11:32:28.106Z,35.73
2018-09-18T11:33:49.569Z,36.90
2018-09-18T11:35:32.532Z,37.20
2018-09-18T11:36:32.876Z,37.12
2018-09-18T11:37:33.519Z,36.90
2018-09-18T11:38:32.891Z,37.18
2018-09-18T11:39:33.396Z,37.46
2018-09-18T11:40:33.499Z,37.76
2018-09-18T11:41:32.896Z,38.06
2018-09-18T11:42:33.414Z,37.96
2018-09-18T11:43:32.997Z,37.66
2018-09-18T11:44:54.657Z,37.85
2018-09-18T11:45:56.401Z,37.58
2018-09-18T11:46:55.926Z,37.68
2018-09-18T11:47:55.614Z,37.87
2018-09-18T11:48:56.280Z,37.98
2018-09-18T11:49:55.013Z,37.79
2018-09-18T11:50:55.799Z,37.71
2018-09-18T11:52:37.323Z,37.51
2018-09-18T11:53:38.331Z,37.41
2018-09-18T11:54:37.702Z,36.92
2018-09-18T11:55:38.181Z,37.51
2018-09-18T11:56:38.152Z,37.10
2018-09-18T11:57:37.768Z,37.87
2018-09-18T11:58:38.424Z,38.06
2018-09-18T11:59:38.117Z,38.63
2018-09-18T12:00:40.516Z,38.84
2018-09-18T12:01:42.689Z,38.35
2018-09-18T12:02:38.045Z,38.53
2018-09-18T12:03:37.326Z,38.76
2018-09-18T12:04:38.015Z,38.09
2018-09-18T12:05:58.991Z,38.40
2018-09-18T12:06:59.238Z,38.31
2018-09-18T12:08:01.491Z,37.91
2018-09-18T12:08:59.903Z,38.13
2018-09-18T12:09:59.462Z,37.65
2018-09-18T12:11:00.374Z,37.65
2018-09-18T12:12:01.021Z,37.07
2018-09-18T12:12:59.650Z,37.73
2018-09-18T12:13:59.148Z,38.23
2018-09-18T12:15:22.761Z,37.73
2018-09-18T12:16:21.033Z,38.24
2018-09-18T12:17:42.760Z,37.30
2018-09-18T12:19:04.362Z,37.98
2018-09-18T12:20:05.054Z,38.19
2018-09-18T12:21:04.586Z,37.41
2018-09-18T12:22:04.977Z,37.24
2018-09-18T12:23:04.485Z,37.24
2018-09-18T12:24:05.088Z,37.13
2018-09-18T12:25:04.334Z,37.41
2018-09-18T12:26:04.938Z,37.60
2018-09-18T12:27:26.008Z,37.32
2018-09-18T12:28:26.587Z,36.74
2018-09-18T12:29:26.189Z,36.74
2018-09-18T12:30:27.043Z,37.13
2018-09-18T12:31:47.503Z,36.64
2018-09-18T12:32:47.838Z,36.84
2018-09-18T12:33:48.262Z,37.30
2018-09-18T12:34:47.944Z,37.68
2018-09-18T12:35:49.161Z,37.77
2018-09-18T12:36:47.797Z,37.10
2018-09-18T12:37:48.204Z,36.82
2018-09-18T12:38:47.935Z,36.64
2018-09-18T12:40:09.602Z,36.92
2018-09-18T12:41:31.472Z,37.32
2018-09-18T12:42:31.915Z,37.34
2018-09-18T12:44:14.524Z,36.16
2018-09-18T12:45:14.924Z,36.52
2018-09-18T12:46:14.635Z,36.71
2018-09-18T12:47:15.623Z,36.69
2018-09-18T12:48:15.804Z,36.79
2018-09-18T12:49:15.178Z,36.67
2018-09-18T12:50:15.124Z,37.32
2018-09-18T12:51:15.109Z,38.00
2018-09-18T12:52:14.513Z,37.72
2018-09-18T12:53:36.466Z,36.93
2018-09-18T12:54:36.756Z,37.03
2018-09-18T12:55:58.277Z,36.55
2018-09-18T12:56:59.079Z,36.27
2018-09-18T12:57:58.754Z,36.27
2018-09-18T12:59:25.679Z,36.87
2018-09-18T13:00:48.604Z,36.97
2018-09-18T13:01:50.864Z,36.97
2018-09-18T13:02:49.230Z,36.77
2018-09-18T13:03:49.532Z,37.18
2018-09-18T13:04:48.937Z,36.18
2018-09-18T13:05:49.207Z,35.57
2018-09-18T13:07:10.109Z,35.49
2018-09-18T13:08:54.842Z,35.96
2018-09-18T13:09:55.352Z,35.86
2018-09-18T13:10:54.958Z,35.94
2018-09-18T13:12:16.573Z,35.85
2018-09-18T13:13:16.677Z,36.36
2018-09-18T13:14:17.306Z,35.66
2018-09-18T13:15:17.203Z,35.76
2018-09-18T13:16:16.863Z,34.28
2018-09-18T13:17:17.384Z,33.69
2018-09-18T13:18:16.899Z,33.69
2018-09-18T13:19:17.441Z,33.97
2018-09-18T13:20:17.030Z,33.75
2018-09-18T13:21:16.588Z,34.34
2018-09-18T13:22:17.005Z,34.55
2018-09-18T13:23:17.689Z,34.25
2018-09-18T13:24:17.048Z,34.23